createdAt,value
2023-04-18T00:01:56.381Z,100251.98
2023-04-18T00:04:25.544Z,100251.91
2023-04-18T00:06:53.813Z,100254.21
2023-04-18T00:09:22.070Z,100255.44
2023-04-18T00:11:50.226Z,100258.44
2023-04-18T00:14:20.203Z,100248.23
2023-04-18T00:16:48.397Z,100246.89
2023-04-18T00:19:16.753Z,100242.17
2023-04-18T00:21:46.152Z,100240.29
2023-04-18T00:24:14.496Z,100244.51
2023-04-18T00:26:43.048Z,100236.56
2023-04-18T00:29:11.241Z,100232.52
2023-04-18T00:31:39.476Z,100228.77
2023-04-18T00:34:07.813Z,100232.54
2023-04-18T00:36:36.656Z,100227.88
2023-04-18T00:39:04.898Z,100223.04
2023-04-18T00:41:33.312Z,100219.61
2023-04-18T00:44:01.789Z,100220.92
2023-04-18T00:46:30.230Z,100216.94
2023-04-18T00:48:58.978Z,100215.25
2023-04-18T00:51:28.112Z,100210.98
2023-04-18T00:53:56.674Z,100210.35
2023-04-18T00:56:26.019Z,100208.77
2023-04-18T00:58:54.638Z,100209.95
2023-04-18T01:01:23.442Z,100200.30
2023-04-18T01:03:52.154Z,100203.98
2023-04-18T01:06:20.678Z,100203.23
2023-04-18T01:08:49.018Z,100207.39
2023-04-18T01:11:19.365Z,100209.86
2023-04-18T01:13:59.814Z,100204.52
2023-04-18T01:16:29.554Z,100208.90
2023-04-18T01:18:57.860Z,100216.48
2023-04-18T01:21:27.095Z,100215.25
2023-04-18T01:23:55.310Z,100215.63
2023-04-18T01:26:23.556Z,100215.14
2023-04-18T01:28:51.842Z,100209.13
2023-04-18T01:31:20.162Z,100209.17
2023-04-18T01:33:48.501Z,100208.97
2023-04-18T01:36:17.453Z,100204.96
2023-04-18T01:38:45.772Z,100207.66
2023-04-18T01:41:13.960Z,100201.45
2023-04-18T01:43:43.879Z,100197.23
2023-04-18T01:46:12.149Z,100198.60
2023-04-18T01:48:40.372Z,100196.79
2023-04-18T01:51:08.585Z,100196.64
2023-04-18T01:53:37.102Z,100200.25
2023-04-18T01:56:05.798Z,100201.11
2023-04-18T01:58:34.158Z,100194.55
2023-04-18T02:01:02.727Z,100191.81
2023-04-18T02:03:31.380Z,100192.21
2023-04-18T02:06:01.235Z,100187.54
2023-04-18T02:08:31.005Z,100180.72
2023-04-18T02:10:59.896Z,100182.48
2023-04-18T02:13:28.468Z,100181.83
2023-04-18T02:15:58.938Z,100179.94
2023-04-18T02:18:27.219Z,100184.95
2023-04-18T02:20:55.498Z,100192.73
2023-04-18T02:23:23.714Z,100189.36
2023-04-18T02:25:51.966Z,100188.80
2023-04-18T02:28:20.607Z,100193.45
2023-04-18T02:30:49.342Z,100194.70
2023-04-18T02:33:17.909Z,100193.27
2023-04-18T02:35:46.477Z,100183.26
2023-04-18T02:38:15.061Z,100185.88
2023-04-18T02:40:43.649Z,100185.71
2023-04-18T02:43:11.833Z,100185.39
2023-04-18T02:45:40.092Z,100183.84
2023-04-18T02:48:08.702Z,100178.11
2023-04-18T02:50:37.308Z,100179.03
2023-04-18T02:53:05.671Z,100184.72
2023-04-18T02:55:44.111Z,100190.77
2023-04-18T02:58:12.358Z,100189.05
2023-04-18T03:00:58.762Z,100191.11
2023-04-18T03:03:46.035Z,100191.43
2023-04-18T03:06:27.948Z,100188.13
2023-04-18T03:08:57.978Z,100179.81
2023-04-18T03:11:26.758Z,100183.52
2023-04-18T03:13:55.690Z,100181.66
2023-04-18T03:16:24.427Z,100186.06
2023-04-18T03:18:52.740Z,100191.36
2023-04-18T03:21:22.010Z,100198.84
2023-04-18T03:23:50.533Z,100199.31
2023-04-18T03:26:18.924Z,100195.48
2023-04-18T03:28:47.298Z,100196.52
2023-04-18T03:31:16.340Z,100192.20
2023-04-18T03:33:45.847Z,100193.93
2023-04-18T03:36:25.466Z,100195.52
2023-04-18T03:38:55.392Z,100196.46
2023-04-18T03:41:25.068Z,100197.00
2023-04-18T03:43:53.242Z,100198.41
2023-04-18T03:46:22.237Z,100201.79
2023-04-18T03:48:51.973Z,100208.50
2023-04-18T03:51:20.238Z,100208.09
2023-04-18T03:53:48.419Z,100213.15
2023-04-18T03:56:18.599Z,100207.43
2023-04-18T03:58:50.511Z,100204.40
2023-04-18T04:01:19.504Z,100206.77
2023-04-18T04:03:47.939Z,100206.08
2023-04-18T04:06:17.915Z,100205.14
2023-04-18T04:08:46.515Z,100206.05
2023-04-18T04:11:15.601Z,100201.43
2023-04-18T04:13:43.771Z,100192.05
2023-04-18T04:16:13.746Z,100195.88
2023-04-18T04:18:42.285Z,100189.23
2023-04-18T04:21:10.563Z,100191.64
2023-04-18T04:23:46.394Z,100200.16
2023-04-18T04:26:23.576Z,100199.64
2023-04-18T04:29:00.585Z,100203.48
2023-04-18T04:31:29.493Z,100198.74
2023-04-18T04:33:57.943Z,100214.35
2023-04-18T04:36:27.395Z,100211.42
2023-04-18T04:38:57.077Z,100217.00
2023-04-18T04:41:32.711Z,100221.77
2023-04-18T04:44:01.963Z,100223.52
2023-04-18T04:46:34.040Z,100227.17
2023-04-18T04:49:04.900Z,100217.55
2023-04-18T04:51:33.554Z,100221.77
2023-04-18T04:54:01.903Z,100224.25
2023-04-18T04:56:30.858Z,100224.04
2023-04-18T04:58:59.287Z,100230.96
2023-04-18T05:01:36.393Z,100226.92
2023-04-18T05:04:05.210Z,100226.09
2023-04-18T05:06:33.779Z,100221.55
2023-04-18T05:09:01.927Z,100220.52
2023-04-18T05:11:30.315Z,100211.77
2023-04-18T05:13:59.204Z,100220.79
2023-04-18T05:16:27.453Z,100216.41
2023-04-18T05:18:55.583Z,100219.00
2023-04-18T05:21:26.145Z,100214.25
2023-04-18T05:23:54.390Z,100214.17
2023-04-18T05:26:22.802Z,100213.65
2023-04-18T05:28:51.685Z,100207.39
2023-04-18T05:31:19.840Z,100205.44
2023-04-18T05:33:48.113Z,100202.60
2023-04-18T05:36:16.451Z,100207.23
2023-04-18T05:38:44.905Z,100201.21
2023-04-18T05:41:13.258Z,100198.81
2023-04-18T05:43:42.934Z,100191.08
2023-04-18T05:46:12.741Z,100188.44
2023-04-18T05:48:41.390Z,100190.21
2023-04-18T05:51:11.511Z,100186.09
2023-04-18T05:53:40.277Z,100185.04
2023-04-18T05:56:08.588Z,100174.41
2023-04-18T05:58:50.621Z,100183.59
2023-04-18T06:01:19.260Z,100169.12
2023-04-18T06:03:47.788Z,100163.45
2023-04-18T06:06:16.430Z,100156.41
2023-04-18T06:08:44.640Z,100151.55
2023-04-18T06:11:15.100Z,100158.66
2023-04-18T06:13:43.277Z,100139.45
2023-04-18T06:16:12.179Z,100134.36
2023-04-18T06:18:40.477Z,100135.98
2023-04-18T06:21:08.641Z,100142.41
2023-04-18T06:23:38.732Z,100138.23
2023-04-18T06:26:07.464Z,100145.43
2023-04-18T06:28:35.997Z,100133.61
2023-04-18T06:31:04.267Z,100132.65
2023-04-18T06:33:33.819Z,100137.92
2023-04-18T06:36:01.956Z,100149.23
2023-04-18T06:38:33.655Z,100150.18
2023-04-18T06:41:01.939Z,100145.11
2023-04-18T06:43:30.220Z,100146.84
2023-04-18T06:45:59.339Z,100150.56
2023-04-18T06:48:27.614Z,100150.78
2023-04-18T06:50:56.041Z,100153.57
2023-04-18T06:53:24.316Z,100148.20
2023-04-18T06:55:52.745Z,100145.03
2023-04-18T06:58:21.195Z,100140.72
2023-04-18T07:00:52.029Z,100135.13
2023-04-18T07:03:20.607Z,100128.02
2023-04-18T07:05:50.542Z,100133.11
2023-04-18T07:08:18.953Z,100128.93
2023-04-18T07:10:47.303Z,100133.58
2023-04-18T07:13:16.340Z,100136.34
2023-04-18T07:15:44.467Z,100134.21
2023-04-18T07:18:16.141Z,100140.91
2023-04-18T07:20:49.906Z,100143.29
2023-04-18T07:23:18.039Z,100144.13
2023-04-18T07:25:46.238Z,100138.70
2023-04-18T07:28:14.467Z,100134.17
2023-04-18T07:30:42.883Z,100130.58
2023-04-18T07:33:26.832Z,100129.61
2023-04-18T07:35:54.977Z,100138.11
2023-04-18T07:38:23.504Z,100137.66
2023-04-18T07:41:00.950Z,100146.81
2023-04-18T07:43:29.280Z,100141.87
2023-04-18T07:45:57.463Z,100134.11
2023-04-18T07:48:26.165Z,100129.94
2023-04-18T07:50:54.347Z,100129.14
2023-04-18T07:53:22.775Z,100124.77
2023-04-18T07:55:51.420Z,100126.18
2023-04-18T07:58:20.249Z,100129.20
2023-04-18T08:00:48.637Z,100141.59
2023-04-18T08:03:17.093Z,100135.06
2023-04-18T08:05:46.115Z,100129.84
2023-04-18T08:08:14.597Z,100127.63
2023-04-18T08:10:42.825Z,100114.92
2023-04-18T08:13:13.412Z,100111.50
2023-04-18T08:15:41.921Z,100110.06
2023-04-18T08:18:10.067Z,100107.71
2023-04-18T08:20:38.679Z,100105.46
2023-04-18T08:23:10.274Z,100108.87
2023-04-18T08:25:39.848Z,100106.13
2023-04-18T08:28:09.116Z,100109.84
2023-04-18T08:30:37.404Z,100110.27
2023-04-18T08:33:05.522Z,100104.85
2023-04-18T08:35:35.425Z,100100.95
2023-04-18T08:38:03.817Z,100110.48
2023-04-18T08:40:32.025Z,100110.71
2023-04-18T08:43:00.231Z,100114.68
2023-04-18T08:45:28.955Z,100118.73
2023-04-18T08:47:59.059Z,100113.30
2023-04-18T08:50:27.829Z,100112.80
2023-04-18T08:52:56.189Z,100111.24
2023-04-18T08:55:24.544Z,100108.90
2023-04-18T08:57:56.199Z,100109.84
2023-04-18T09:00:24.509Z,100117.89
2023-04-18T09:02:57.619Z,100105.73
2023-04-18T09:05:27.073Z,100108.23
2023-04-18T09:07:56.256Z,100110.64
2023-04-18T09:10:34.440Z,100105.27
2023-04-18T09:13:05.985Z,100108.88
2023-04-18T09:15:34.779Z,100097.36
2023-04-18T09:18:03.498Z,100102.05
2023-04-18T09:20:41.103Z,100096.04
2023-04-18T09:23:16.457Z,100093.93
2023-04-18T09:25:46.881Z,100097.41
2023-04-18T09:28:30.041Z,100090.44
2023-04-18T09:31:07.609Z,100087.96
2023-04-18T09:33:37.279Z,100100.64
2023-04-18T09:36:27.324Z,100099.54
2023-04-18T09:38:57.237Z,100099.91
2023-04-18T09:41:25.857Z,100093.42
2023-04-18T09:44:09.718Z,100109.86
2023-04-18T09:46:39.756Z,100106.66
2023-04-18T09:49:10.827Z,100097.75
2023-04-18T09:51:39.611Z,100105.69
2023-04-18T09:54:08.082Z,100111.71
2023-04-18T09:56:37.449Z,100112.66
2023-04-18T09:59:09.385Z,100095.77
2023-04-18T10:01:38.114Z,100111.83
2023-04-18T10:04:09.812Z,100112.87
2023-04-18T10:06:39.919Z,100105.41
2023-04-18T10:09:08.950Z,100121.52
2023-04-18T10:11:37.217Z,100114.27
2023-04-18T10:14:14.951Z,100112.63
2023-04-18T10:16:45.687Z,100121.26
2023-04-18T10:19:28.594Z,100138.09
2023-04-18T10:21:58.946Z,100131.37
2023-04-18T10:24:57.075Z,100141.80
2023-04-18T10:28:00.418Z,100148.30
2023-04-18T10:30:41.042Z,100127.02
2023-04-18T10:33:30.303Z,100120.06
2023-04-18T10:36:08.913Z,100113.26
2023-04-18T10:38:45.449Z,100128.41
2023-04-18T10:41:27.630Z,100108.45
2023-04-18T10:44:23.003Z,100095.06
2023-04-18T10:46:51.856Z,100086.77
2023-04-18T10:49:22.870Z,100088.84
2023-04-18T10:51:58.490Z,100091.39
2023-04-18T10:54:39.916Z,100090.29
2023-04-18T10:57:10.223Z,100083.02
2023-04-18T10:59:39.574Z,100080.08
2023-04-18T11:02:30.946Z,100091.47
2023-04-18T11:05:00.494Z,100085.83
2023-04-18T11:07:34.579Z,100087.65
2023-04-18T11:10:04.083Z,100087.71
2023-04-18T11:12:34.681Z,100086.80
2023-04-18T11:15:17.884Z,100093.20
2023-04-18T11:17:46.001Z,100108.33
2023-04-18T11:20:15.104Z,100097.55
2023-04-18T11:22:46.613Z,100103.23
2023-04-18T11:25:16.498Z,100088.32
2023-04-18T11:27:45.670Z,100086.27
2023-04-18T11:30:14.728Z,100087.02
2023-04-18T11:32:44.110Z,100087.14
2023-04-18T11:35:13.581Z,100084.21
2023-04-18T11:37:43.403Z,100084.66
2023-04-18T11:40:12.493Z,100078.23
2023-04-18T11:42:41.596Z,100076.13
2023-04-18T11:45:12.385Z,100069.55
2023-04-18T11:47:42.935Z,100063.64
2023-04-18T11:50:12.404Z,100065.66
2023-04-18T11:52:41.718Z,100072.41
2023-04-18T11:55:24.055Z,100066.70
2023-04-18T11:57:53.446Z,100078.15
2023-04-18T12:00:39.080Z,100079.73
2023-04-18T12:03:15.706Z,100071.89
2023-04-18T12:05:44.507Z,100070.24
2023-04-18T12:08:18.557Z,100065.98
2023-04-18T12:10:51.228Z,100052.48
2023-04-18T12:13:24.940Z,100050.84
2023-04-18T12:15:54.257Z,100048.58
2023-04-18T12:18:24.895Z,100038.34
2023-04-18T12:20:56.929Z,100050.70
2023-04-18T12:23:37.208Z,100035.40
2023-04-18T12:26:08.749Z,100032.21
2023-04-18T12:28:37.844Z,100024.09
2023-04-18T12:31:07.606Z,100017.63
2023-04-18T12:33:38.437Z,100016.36
2023-04-18T12:36:08.727Z,100019.95
2023-04-18T12:38:37.423Z,100023.63
2023-04-18T12:41:06.512Z,100025.63
2023-04-18T12:43:34.996Z,100032.05
2023-04-18T12:46:03.486Z,100029.39
2023-04-18T12:48:31.850Z,100028.02
2023-04-18T12:51:00.047Z,100029.39
2023-04-18T12:53:28.221Z,100029.92
2023-04-18T12:55:56.610Z,100033.27
2023-04-18T12:58:24.859Z,100037.89
2023-04-18T13:00:53.319Z,100039.52
2023-04-18T13:03:21.780Z,100027.91
2023-04-18T13:05:50.163Z,100037.43
2023-04-18T13:08:18.508Z,100026.39
2023-04-18T13:10:47.835Z,100024.05
2023-04-18T13:13:16.304Z,100020.40
2023-04-18T13:15:44.515Z,100019.11
2023-04-18T13:18:12.699Z,100022.94
2023-04-18T13:20:41.570Z,100025.70
2023-04-18T13:23:10.262Z,100020.60
2023-04-18T13:25:38.951Z,100021.09
2023-04-18T13:28:07.124Z,100024.30
2023-04-18T13:30:36.027Z,100028.39
2023-04-18T13:33:04.548Z,100027.30
2023-04-18T13:35:32.891Z,100033.06
2023-04-18T13:38:01.279Z,100026.39
2023-04-18T13:40:29.447Z,100025.13
2023-04-18T13:42:57.957Z,100027.23
2023-04-18T13:45:26.290Z,100016.35
2023-04-18T13:47:54.807Z,100026.67
2023-04-18T13:50:23.500Z,100022.46
2023-04-18T13:52:52.173Z,100025.73
2023-04-18T13:55:20.306Z,100026.45
2023-04-18T13:57:48.658Z,100022.23
2023-04-18T14:00:17.704Z,100029.63
2023-04-18T14:02:45.999Z,100030.27
2023-04-18T14:05:14.740Z,100023.79
2023-04-18T14:07:43.305Z,100022.38
2023-04-18T14:10:11.769Z,100027.69
2023-04-18T14:12:40.588Z,100028.01
2023-04-18T14:15:09.579Z,100024.34
2023-04-18T14:17:37.904Z,100012.84
2023-04-18T14:20:07.969Z,100006.52
2023-04-18T14:22:36.088Z,100013.46
2023-04-18T14:25:04.813Z,100014.27
2023-04-18T14:27:33.749Z,100009.73
2023-04-18T14:30:02.161Z,100013.98
2023-04-18T14:32:30.849Z,100007.05
2023-04-18T14:34:59.409Z,100005.48
2023-04-18T14:37:27.902Z,100009.80
2023-04-18T14:39:56.286Z,100003.98
2023-04-18T14:42:24.446Z,100002.45
2023-04-18T14:44:52.538Z,100007.02
2023-04-18T14:47:21.014Z,100006.96
2023-04-18T14:49:50.402Z,99994.64
2023-04-18T14:52:18.811Z,99998.55
2023-04-18T14:54:47.105Z,99997.99
2023-04-18T14:57:15.546Z,99994.92
2023-04-18T14:59:43.771Z,99989.27
2023-04-18T15:02:12.068Z,99991.59
2023-04-18T15:04:40.642Z,99990.90
2023-04-18T15:07:08.901Z,99996.20
2023-04-18T15:09:37.758Z,99999.41
2023-04-18T15:12:06.648Z,99995.77
2023-04-18T15:14:35.993Z,99995.33
2023-04-18T15:17:05.606Z,99995.83
2023-04-18T15:19:34.597Z,99999.42
2023-04-18T15:22:03.237Z,99995.32
2023-04-18T15:24:31.477Z,99999.60
2023-04-18T15:27:00.263Z,100001.82
2023-04-18T15:29:29.280Z,100002.39
2023-04-18T15:31:57.539Z,99999.59
2023-04-18T15:34:26.455Z,99997.08
2023-04-18T15:36:54.678Z,99997.99
2023-04-18T15:39:23.753Z,99993.35
2023-04-18T15:41:55.185Z,99994.38
2023-04-18T15:44:23.384Z,99985.88
2023-04-18T15:46:51.855Z,99987.10
2023-04-18T15:49:20.487Z,99988.37
2023-04-18T15:51:49.013Z,99983.84
2023-04-18T15:54:17.269Z,99979.64
2023-04-18T15:56:45.778Z,99986.75
2023-04-18T15:59:13.963Z,99990.61
2023-04-18T16:01:45.248Z,99994.08
2023-04-18T16:04:14.882Z,99989.80
2023-04-18T16:06:43.398Z,99991.15
2023-04-18T16:09:11.683Z,99987.23
2023-04-18T16:11:39.962Z,99984.02
2023-04-18T16:14:08.192Z,99989.73
2023-04-18T16:16:36.346Z,99986.94
2023-04-18T16:19:05.579Z,99991.19
2023-04-18T16:21:33.979Z,99991.15
2023-04-18T16:24:02.410Z,99991.58
2023-04-18T16:26:30.932Z,99993.13
2023-04-18T16:28:59.252Z,99988.40
2023-04-18T16:31:27.518Z,99984.95
2023-04-18T16:33:56.191Z,99982.06
2023-04-18T16:36:24.513Z,99990.89
2023-04-18T16:38:52.756Z,99992.58
2023-04-18T16:41:20.985Z,99988.19
2023-04-18T16:43:49.255Z,99991.05
2023-04-18T16:46:18.044Z,99994.45
2023-04-18T16:48:46.760Z,99993.86
2023-04-18T16:51:14.951Z,99995.88
2023-04-18T16:53:44.729Z,100003.49
2023-04-18T16:56:12.937Z,100002.70
2023-04-18T16:58:41.293Z,100002.03
2023-04-18T17:01:09.571Z,100002.27
2023-04-18T17:03:38.027Z,100005.02
2023-04-18T17:06:07.030Z,100007.96
2023-04-18T17:08:36.056Z,100004.98
2023-04-18T17:11:04.543Z,100006.27
2023-04-18T17:13:32.882Z,100007.40
2023-04-18T17:16:01.334Z,100012.10
2023-04-18T17:18:29.787Z,100014.47
2023-04-18T17:20:58.275Z,100011.90
2023-04-18T17:23:26.592Z,100011.98
2023-04-18T17:25:54.760Z,100008.61
2023-04-18T17:28:23.864Z,100007.59
2023-04-18T17:30:52.237Z,100003.50
2023-04-18T17:33:21.226Z,100001.10
2023-04-18T17:35:50.487Z,99999.91
2023-04-18T17:38:18.866Z,100000.35
2023-04-18T17:40:47.088Z,99999.43
2023-04-18T17:43:15.260Z,99998.60
2023-04-18T17:45:44.220Z,99993.09
2023-04-18T17:48:12.942Z,99989.51
2023-04-18T17:50:41.379Z,99990.15
2023-04-18T17:53:09.638Z,99987.80
2023-04-18T17:55:39.738Z,99987.33
2023-04-18T17:58:08.011Z,99984.73
2023-04-18T18:00:36.803Z,99979.43
2023-04-18T18:03:05.323Z,99979.35
2023-04-18T18:05:35.677Z,99978.80
2023-04-18T18:08:04.222Z,99978.06
2023-04-18T18:10:33.597Z,99973.77
2023-04-18T18:13:02.168Z,99973.42
2023-04-18T18:15:31.226Z,99970.86
2023-04-18T18:17:59.816Z,99967.09
2023-04-18T18:20:28.167Z,99961.17
2023-04-18T18:22:59.946Z,99958.54
2023-04-18T18:25:28.775Z,99955.36
2023-04-18T18:27:57.217Z,99952.29
2023-04-18T18:30:25.523Z,99954.04
2023-04-18T18:32:54.526Z,99952.16
2023-04-18T18:35:22.763Z,99946.33
2023-04-18T18:37:51.352Z,99938.23
2023-04-18T18:40:19.737Z,99935.34
2023-04-18T18:42:51.450Z,99936.30
2023-04-18T18:45:21.303Z,99933.98
2023-04-18T18:47:49.552Z,99933.91
2023-04-18T18:50:18.073Z,99933.52
2023-04-18T18:52:46.366Z,99925.98
2023-04-18T18:55:15.398Z,99922.79
2023-04-18T18:57:43.635Z,99921.41
2023-04-18T19:00:13.506Z,99919.36
2023-04-18T19:02:42.406Z,99921.00
2023-04-18T19:05:12.740Z,99923.34
2023-04-18T19:07:42.519Z,99917.36
2023-04-18T19:10:10.800Z,99916.54
2023-04-18T19:12:38.994Z,99915.26
2023-04-18T19:15:08.128Z,99918.08
2023-04-18T19:17:36.793Z,99914.35
2023-04-18T19:20:05.847Z,99916.86
2023-04-18T19:22:34.736Z,99918.19
2023-04-18T19:25:03.525Z,99916.30
2023-04-18T19:27:31.727Z,99913.89
2023-04-18T19:29:59.880Z,99912.77
2023-04-18T19:32:28.200Z,99909.33
2023-04-18T19:34:56.758Z,99906.27
2023-04-18T19:37:25.139Z,99905.21
2023-04-18T19:39:53.409Z,99909.49
2023-04-18T19:42:21.728Z,99908.98
2023-04-18T19:44:49.781Z,99908.52
2023-04-18T19:47:17.956Z,99907.98
2023-04-18T19:49:46.228Z,99902.69
2023-04-18T19:52:14.761Z,99903.16
2023-04-18T19:54:43.096Z,99904.05
2023-04-18T19:57:11.924Z,99900.41
2023-04-18T19:59:40.493Z,99896.02
2023-04-18T20:02:09.301Z,99893.07
2023-04-18T20:04:38.292Z,99895.77
2023-04-18T20:07:06.684Z,99897.17
2023-04-18T20:09:35.235Z,99892.46
2023-04-18T20:12:03.725Z,99893.16
2023-04-18T20:14:32.104Z,99887.35
2023-04-18T20:17:00.315Z,99888.61
2023-04-18T20:19:29.904Z,99885.00
2023-04-18T20:21:58.209Z,99880.14
2023-04-18T20:24:28.359Z,99879.27
2023-04-18T20:26:59.014Z,99874.67
2023-04-18T20:29:27.998Z,99874.88
2023-04-18T20:31:56.255Z,99875.48
2023-04-18T20:34:24.711Z,99873.20
2023-04-18T20:36:53.185Z,99870.70
2023-04-18T20:39:21.297Z,99874.93
2023-04-18T20:41:50.822Z,99870.91
2023-04-18T20:44:22.291Z,99872.23
2023-04-18T20:46:52.059Z,99870.02
2023-04-18T20:49:20.449Z,99872.89
2023-04-18T20:51:48.603Z,99871.52
2023-04-18T20:54:17.122Z,99868.13
2023-04-18T20:56:45.576Z,99870.27
2023-04-18T20:59:13.958Z,99863.56
2023-04-18T21:01:42.787Z,99862.98
2023-04-18T21:04:11.172Z,99859.27
2023-04-18T21:06:39.612Z,99854.45
2023-04-18T21:09:07.898Z,99854.88
2023-04-18T21:11:36.171Z,99845.38
2023-04-18T21:14:06.736Z,99840.05
2023-04-18T21:16:36.059Z,99834.52
2023-04-18T21:19:04.279Z,99836.42
2023-04-18T21:21:34.430Z,99836.84
2023-04-18T21:24:02.763Z,99833.66
2023-04-18T21:26:31.031Z,99833.63
2023-04-18T21:29:00.597Z,99825.69
2023-04-18T21:31:29.937Z,99827.20
2023-04-18T21:33:59.362Z,99819.34
2023-04-18T21:36:28.292Z,99816.39
2023-04-18T21:38:57.265Z,99813.77
2023-04-18T21:41:26.086Z,99810.95
2023-04-18T21:43:54.379Z,99814.83
2023-04-18T21:46:22.800Z,99809.84
2023-04-18T21:48:51.283Z,99808.85
2023-04-18T21:51:19.585Z,99805.30
2023-04-18T21:53:48.005Z,99808.45
2023-04-18T21:56:17.025Z,99805.15
2023-04-18T21:58:45.303Z,99803.30
2023-04-18T22:01:13.581Z,99796.77
2023-04-18T22:03:42.039Z,99791.55
2023-04-18T22:06:10.629Z,99792.16
2023-04-18T22:08:39.172Z,99789.69
2023-04-18T22:11:09.284Z,99789.02
2023-04-18T22:13:37.560Z,99786.58
2023-04-18T22:16:08.406Z,99786.09
2023-04-18T22:18:37.949Z,99781.73
2023-04-18T22:21:06.974Z,99781.52
2023-04-18T22:23:35.459Z,99783.63
2023-04-18T22:26:03.737Z,99784.29
2023-04-18T22:28:32.553Z,99780.13
2023-04-18T22:31:01.002Z,99781.73
2023-04-18T22:33:29.609Z,99781.17
2023-04-18T22:35:59.324Z,99778.64
2023-04-18T22:38:27.462Z,99776.63
2023-04-18T22:40:55.878Z,99769.15
2023-04-18T22:43:25.083Z,99765.39
2023-04-18T22:45:53.180Z,99763.74
2023-04-18T22:48:21.587Z,99763.14
2023-04-18T22:50:50.146Z,99759.78
2023-04-18T22:53:18.474Z,99755.40
2023-04-18T22:55:46.852Z,99754.88
2023-04-18T22:58:15.244Z,99754.47
2023-04-18T23:00:43.655Z,99745.66
2023-04-18T23:03:12.088Z,99742.40
2023-04-18T23:05:41.267Z,99735.23
2023-04-18T23:08:09.527Z,99735.29
2023-04-18T23:10:38.420Z,99735.30
2023-04-18T23:13:07.625Z,99737.10
2023-04-18T23:15:35.805Z,99731.57
2023-04-18T23:18:04.378Z,99731.00
2023-04-18T23:20:32.983Z,99730.48
2023-04-18T23:23:01.182Z,99731.48
2023-04-18T23:25:33.349Z,99727.79
2023-04-18T23:28:01.551Z,99721.51
2023-04-18T23:30:30.210Z,99716.26
2023-04-18T23:32:58.511Z,99716.63
2023-04-18T23:35:26.760Z,99713.79
2023-04-18T23:37:55.045Z,99717.36
2023-04-18T23:40:23.339Z,99712.27
2023-04-18T23:42:54.521Z,99713.86
2023-04-18T23:45:24.535Z,99716.41
2023-04-18T23:47:52.873Z,99714.41
2023-04-18T23:50:21.266Z,99710.16
2023-04-18T23:52:49.431Z,99705.69
2023-04-18T23:55:17.503Z,99699.65
2023-04-18T23:57:45.690Z,99698.33
